Time;durP1;ratioP1;P1;durP2;ratioP2;P2;SDS_P1;SDS_P2;PMS_P1;PMS_P2;Temp;Humidity;BMP_temperature;BMP_pressure;BME280_temperature;BME280_humidity;BME280_pressure;Samples;Min_cycle;Max_cycle;Signal;HPM_P1;HPM_P2
2021/10/27 00:01:44;;;;;;;7.57;5.83;;;10.80;99.90;;;;;;4992319;28;20397;-84
2021/10/27 00:04:10;;;;;;;9.03;5.90;;;10.70;99.90;;;;;;4992846;28;20404;-84
2021/10/27 00:06:36;;;;;;;7.80;5.80;;;10.80;99.90;;;;;;4991626;28;20381;-83
2021/10/27 00:09:03;;;;;;;7.22;5.57;;;10.80;99.90;;;;;;4990388;28;20926;-84
2021/10/27 00:11:29;;;;;;;8.85;6.10;;;10.80;99.90;;;;;;4992749;28;20392;-82
2021/10/27 00:13:55;;;;;;;6.70;5.38;;;10.90;99.90;;;;;;4991425;28;20397;-84
2021/10/27 00:16:21;;;;;;;8.20;5.30;;;11.00;99.90;;;;;;4991773;28;20747;-83
2021/10/27 00:18:46;;;;;;;9.52;5.80;;;11.00;99.90;;;;;;4992578;28;20376;-84
2021/10/27 00:21:12;;;;;;;6.68;5.05;;;11.00;99.90;;;;;;4992544;28;20397;-82
2021/10/27 00:23:38;;;;;;;10.13;5.70;;;10.90;99.90;;;;;;4991280;28;20401;-84
2021/10/27 00:26:04;;;;;;;7.15;5.38;;;10.90;99.90;;;;;;4992823;28;20412;-83
2021/10/27 00:28:30;;;;;;;8.25;5.68;;;10.90;99.90;;;;;;4991676;28;20494;-84
2021/10/27 00:30:56;;;;;;;8.63;5.40;;;10.90;99.90;;;;;;4991737;28;20388;-83
2021/10/27 00:33:22;;;;;;;8.43;5.80;;;10.90;99.90;;;;;;4992105;28;20393;-84
2021/10/27 00:35:48;;;;;;;5.13;4.50;;;10.90;99.90;;;;;;4990821;28;20392;-83
2021/10/27 00:38:14;;;;;;;8.10;5.77;;;10.90;99.90;;;;;;4991882;28;20407;-83
2021/10/27 00:40:39;;;;;;;9.32;5.97;;;10.90;99.90;;;;;;4992368;28;20457;-83
2021/10/27 00:43:05;;;;;;;10.07;5.60;;;10.90;99.90;;;;;;4994984;28;20862;-83
2021/10/27 00:45:30;;;;;;;8.07;6.03;;;10.90;99.90;;;;;;4993222;28;20468;-84
2021/10/27 00:47:56;;;;;;;7.57;5.37;;;10.90;99.90;;;;;;4992899;28;20373;-84
2021/10/27 00:50:22;;;;;;;7.97;5.50;;;10.90;99.90;;;;;;4992313;28;20401;-84
2021/10/27 00:52:47;;;;;;;7.57;5.37;;;10.80;99.90;;;;;;4991423;28;20909;-83
2021/10/27 00:55:13;;;;;;;11.13;6.47;;;10.80;99.90;;;;;;4992882;28;20484;-84
2021/10/27 00:57:39;;;;;;;8.05;5.95;;;10.80;99.90;;;;;;4992867;28;20437;-82
2021/10/27 01:00:07;;;;;;;6.35;5.72;;;10.80;99.90;;;;;;4991658;28;20783;-84
2021/10/27 01:02:32;;;;;;;7.60;5.63;;;10.70;99.90;;;;;;4992854;28;20384;-84
2021/10/27 01:04:58;;;;;;;8.27;5.60;;;10.70;99.90;;;;;;4991040;28;20404;-84
2021/10/27 01:07:25;;;;;;;6.43;5.40;;;10.70;99.90;;;;;;4992467;28;20558;-82
2021/10/27 01:09:51;;;;;;;9.80;5.60;;;10.70;99.90;;;;;;4991940;28;20413;-83
2021/10/27 01:12:17;;;;;;;7.88;5.72;;;10.70;99.90;;;;;;4992576;28;20431;-84
2021/10/27 01:14:45;;;;;;;9.07;6.13;;;10.70;99.90;;;;;;4990471;28;20389;-83
2021/10/27 01:17:13;;;;;;;8.77;5.65;;;10.70;99.90;;;;;;4991901;28;20413;-83
2021/10/27 01:19:47;;;;;;;7.90;5.23;;;10.70;99.90;;;;;;4992776;28;20415;-84
2021/10/27 01:22:15;;;;;;;8.60;5.47;;;10.80;99.90;;;;;;4988888;28;20503;-82
2021/10/27 01:24:41;;;;;;;8.35;5.53;;;10.70;99.90;;;;;;4994580;28;20484;-83
2021/10/27 01:27:07;;;;;;;6.65;5.65;;;10.80;99.90;;;;;;4994742;28;21013;-83
2021/10/27 01:29:33;;;;;;;8.82;5.70;;;10.80;99.90;;;;;;4995638;28;20408;-83
2021/10/27 01:31:59;;;;;;;10.35;5.57;;;10.90;99.90;;;;;;4995586;28;20384;-83
2021/10/27 01:34:24;;;;;;;7.30;5.28;;;10.90;99.90;;;;;;4994947;28;20479;-83
2021/10/27 01:36:50;;;;;;;8.98;5.53;;;11.00;99.90;;;;;;4995236;28;20901;-83
2021/10/27 01:39:16;;;;;;;6.53;5.03;;;11.00;99.90;;;;;;4994813;28;20397;-84
2021/10/27 01:41:41;;;;;;;8.70;5.50;;;11.00;99.90;;;;;;4996863;28;20877;-83
2021/10/27 01:44:07;;;;;;;9.25;5.32;;;11.10;99.90;;;;;;4994061;28;20404;-84
2021/10/27 01:46:36;;;;;;;7.70;5.60;;;11.10;99.90;;;;;;4995987;28;20451;-84
2021/10/27 01:49:07;;;;;;;8.65;5.68;;;11.10;99.90;;;;;;4994541;28;20412;-84
2021/10/27 01:51:33;;;;;;;6.95;5.45;;;11.10;99.90;;;;;;4996089;28;20420;-84
2021/10/27 01:53:59;;;;;;;7.50;5.70;;;11.10;99.90;;;;;;4994160;28;20926;-82
2021/10/27 01:56:25;;;;;;;8.63;5.90;;;11.10;99.90;;;;;;4995972;28;20393;-83
2021/10/27 01:58:52;;;;;;;9.82;5.75;;;11.00;99.90;;;;;;4995446;28;20385;-83
2021/10/27 02:01:18;;;;;;;8.88;6.00;;;11.10;99.90;;;;;;4997263;28;20377;-83
2021/10/27 02:03:44;;;;;;;8.02;6.13;;;11.10;99.90;;;;;;4996366;28;20404;-83
2021/10/27 02:06:11;;;;;;;9.88;6.53;;;11.10;99.90;;;;;;4996473;28;20388;-82
2021/10/27 02:08:37;;;;;;;8.35;5.63;;;11.10;99.90;;;;;;4995826;28;20420;-83
2021/10/27 02:11:02;;;;;;;8.73;6.22;;;11.10;99.90;;;;;;4997044;28;20381;-84
2021/10/27 02:13:28;;;;;;;9.63;5.82;;;11.10;99.90;;;;;;4997592;28;20432;-84
2021/10/27 02:15:54;;;;;;;8.60;6.50;;;11.10;99.90;;;;;;4997163;28;20377;-82
2021/10/27 02:18:20;;;;;;;9.10;6.28;;;11.10;99.90;;;;;;4995160;28;20800;-84
2021/10/27 02:20:46;;;;;;;8.73;6.55;;;11.10;99.90;;;;;;4995358;28;20431;-84
2021/10/27 02:23:13;;;;;;;10.55;6.80;;;11.10;99.90;;;;;;4993979;28;20385;-83
2021/10/27 02:25:38;;;;;;;10.95;6.68;;;11.00;99.90;;;;;;4994963;28;20429;-84
2021/10/27 02:28:04;;;;;;;9.50;6.47;;;11.00;99.90;;;;;;4994421;28;20834;-83
2021/10/27 02:30:29;;;;;;;7.63;5.97;;;11.00;99.90;;;;;;4994213;28;20401;-84
2021/10/27 02:32:55;;;;;;;7.80;6.60;;;11.00;99.90;;;;;;4992361;28;20972;-82
2021/10/27 02:35:21;;;;;;;8.38;6.28;;;11.10;99.90;;;;;;4993986;28;20385;-83
2021/10/27 02:37:47;;;;;;;8.95;6.60;;;11.10;99.90;;;;;;4994842;28;20430;-83
2021/10/27 02:40:14;;;;;;;9.37;6.73;;;11.10;99.90;;;;;;4993965;28;20784;-83
2021/10/27 02:42:41;;;;;;;9.50;6.65;;;11.20;99.90;;;;;;4995632;28;20425;-84
2021/10/27 02:45:08;;;;;;;9.35;6.45;;;11.10;99.90;;;;;;4994566;28;20381;-84
2021/10/27 02:47:34;;;;;;;8.68;6.20;;;11.10;99.90;;;;;;4994696;28;20412;-84
2021/10/27 02:50:00;;;;;;;9.60;6.40;;;11.10;99.90;;;;;;4995448;28;20408;-83
2021/10/27 02:52:25;;;;;;;10.57;6.37;;;11.10;99.90;;;;;;4995096;28;20975;-83
2021/10/27 02:54:51;;;;;;;9.57;6.67;;;11.20;99.90;;;;;;4994545;28;20903;-84
2021/10/27 02:57:17;;;;;;;10.43;6.57;;;11.20;99.90;;;;;;4994146;28;20404;-83
2021/10/27 02:59:42;;;;;;;8.00;6.27;;;11.20;99.90;;;;;;4993210;28;20376;-83
2021/10/27 03:02:08;;;;;;;8.60;6.85;;;11.20;99.90;;;;;;4994138;28;20484;-82
2021/10/27 03:04:33;;;;;;;8.83;6.27;;;11.20;99.90;;;;;;4993294;28;20444;-84
2021/10/27 03:06:59;;;;;;;10.55;6.47;;;11.20;99.90;;;;;;4994900;28;20440;-83
2021/10/27 03:09:24;;;;;;;7.57;6.10;;;11.20;99.90;;;;;;4993695;28;20405;-84
2021/10/27 03:11:52;;;;;;;9.00;6.18;;;11.30;99.90;;;;;;4994609;28;21013;-84
2021/10/27 03:14:18;;;;;;;7.60;6.65;;;11.30;99.90;;;;;;4992798;28;20500;-85
2021/10/27 03:16:43;;;;;;;9.32;6.38;;;11.30;99.90;;;;;;4993879;28;20906;-82
2021/10/27 03:19:09;;;;;;;8.07;6.20;;;11.30;99.90;;;;;;4994599;28;20448;-84
2021/10/27 03:21:34;;;;;;;8.80;5.97;;;11.30;99.90;;;;;;4994382;28;20405;-84
2021/10/27 03:24:00;;;;;;;8.32;6.70;;;11.30;99.90;;;;;;4995159;28;20376;-84
2021/10/27 03:26:26;;;;;;;8.05;6.15;;;11.30;99.90;;;;;;4992539;28;20424;-82
2021/10/27 03:28:53;;;;;;;10.23;6.47;;;11.30;99.90;;;;;;4992999;28;20918;-83
2021/10/27 03:31:18;;;;;;;8.90;6.60;;;11.30;99.90;;;;;;4994497;28;20417;-82
2021/10/27 03:33:44;;;;;;;7.53;6.40;;;11.30;99.90;;;;;;4993502;28;20423;-83
2021/10/27 03:36:11;;;;;;;7.97;6.70;;;11.30;99.90;;;;;;4994459;28;20431;-83
2021/10/27 03:38:37;;;;;;;11.25;6.80;;;11.30;99.90;;;;;;4994810;28;20397;-83
2021/10/27 03:41:02;;;;;;;10.57;6.65;;;11.20;99.90;;;;;;4994855;28;20866;-83
2021/10/27 03:43:28;;;;;;;7.95;6.70;;;11.20;99.90;;;;;;4994811;28;20528;-84
2021/10/27 03:45:54;;;;;;;10.93;6.80;;;11.20;99.90;;;;;;4994177;28;20404;-84
2021/10/27 03:48:19;;;;;;;9.48;6.80;;;11.20;99.90;;;;;;4994938;28;20466;-84
2021/10/27 03:50:45;;;;;;;9.35;6.63;;;11.10;99.90;;;;;;4995312;28;20397;-84
2021/10/27 03:53:11;;;;;;;9.13;6.57;;;11.10;99.90;;;;;;4993392;28;20818;-84
2021/10/27 03:55:37;;;;;;;9.63;6.97;;;11.10;99.90;;;;;;4993028;28;20399;-83
2021/10/27 03:58:03;;;;;;;9.20;6.47;;;11.00;99.90;;;;;;4994195;28;20759;-83
2021/10/27 04:00:29;;;;;;;8.07;6.27;;;11.10;99.90;;;;;;4993678;28;20970;-84
2021/10/27 04:02:54;;;;;;;8.02;6.45;;;11.10;99.90;;;;;;4994765;28;20894;-83
2021/10/27 04:05:21;;;;;;;9.75;6.88;;;11.10;99.90;;;;;;4994390;28;20404;-83
2021/10/27 04:07:46;;;;;;;10.02;6.95;;;11.20;99.90;;;;;;4994745;28;20389;-83
2021/10/27 04:10:13;;;;;;;10.77;7.03;;;11.20;99.90;;;;;;4992958;28;20941;-85
2021/10/27 04:12:41;;;;;;;7.75;6.15;;;11.20;99.90;;;;;;4993543;28;20377;-82
2021/10/27 04:15:09;;;;;;;7.57;6.38;;;11.30;99.90;;;;;;4993154;28;20377;-83
2021/10/27 04:17:35;;;;;;;9.27;6.72;;;11.20;99.90;;;;;;4993440;28;20472;-83
2021/10/27 04:20:05;;;;;;;9.00;6.47;;;11.30;99.90;;;;;;4993807;28;20392;-84
2021/10/27 04:22:32;;;;;;;8.13;6.72;;;11.30;99.90;;;;;;4993650;28;20377;-82
2021/10/27 04:24:58;;;;;;;8.65;6.65;;;11.30;99.90;;;;;;4994115;28;20385;-84
2021/10/27 04:27:24;;;;;;;9.82;6.75;;;11.20;99.90;;;;;;4993147;28;20791;-83
2021/10/27 04:29:50;;;;;;;9.27;6.70;;;11.20;99.90;;;;;;4994799;28;20910;-84
2021/10/27 04:32:15;;;;;;;10.85;6.93;;;11.10;99.90;;;;;;4992572;28;20389;-82
2021/10/27 04:34:42;;;;;;;10.40;6.70;;;11.10;99.90;;;;;;4992838;28;20410;-83
2021/10/27 04:37:09;;;;;;;9.88;6.72;;;11.10;99.90;;;;;;4993367;28;20928;-82
2021/10/27 04:39:35;;;;;;;10.35;7.20;;;11.00;99.90;;;;;;4992828;28;20492;-84
2021/10/27 04:42:01;;;;;;;8.67;6.63;;;11.00;99.90;;;;;;4995172;28;20381;-85
2021/10/27 04:44:27;;;;;;;10.27;6.53;;;11.00;99.90;;;;;;4995551;28;20460;-84
2021/10/27 04:46:53;;;;;;;9.10;6.80;;;10.90;99.90;;;;;;4993400;28;20416;-85
2021/10/27 04:49:18;;;;;;;11.30;7.28;;;10.90;99.90;;;;;;4993542;28;20945;-84
2021/10/27 04:51:44;;;;;;;10.43;6.43;;;10.90;99.90;;;;;;4995314;28;20427;-85
2021/10/27 04:54:09;;;;;;;8.27;6.73;;;11.00;99.90;;;;;;4991934;28;20466;-84
2021/10/27 04:56:35;;;;;;;11.82;7.07;;;10.90;99.90;;;;;;4992395;28;20972;-83
2021/10/27 04:59:01;;;;;;;9.07;6.43;;;11.00;99.90;;;;;;4991927;28;20377;-83
2021/10/27 05:01:27;;;;;;;8.63;6.70;;;11.00;99.90;;;;;;4992214;28;20869;-86
2021/10/27 05:03:52;;;;;;;8.90;6.95;;;11.00;99.90;;;;;;4992894;28;20975;-83
2021/10/27 05:06:19;;;;;;;10.00;7.18;;;10.90;99.90;;;;;;4992952;28;20744;-84
2021/10/27 05:08:47;;;;;;;10.05;7.07;;;11.00;99.90;;;;;;4992005;28;20408;-83
2021/10/27 05:11:12;;;;;;;9.38;6.65;;;11.00;99.90;;;;;;4990921;28;20404;-84
2021/10/27 05:13:38;;;;;;;9.55;7.20;;;10.90;99.90;;;;;;4992911;28;20806;-84
2021/10/27 05:16:04;;;;;;;13.10;7.77;;;10.90;99.90;;;;;;4991694;28;20393;-83
2021/10/27 05:18:29;;;;;;;10.05;7.43;;;10.90;99.90;;;;;;4993177;28;20400;-84
2021/10/27 05:20:55;;;;;;;9.95;7.70;;;10.90;99.90;;;;;;4991610;28;20395;-84
2021/10/27 05:23:21;;;;;;;8.17;7.07;;;10.90;99.90;;;;;;4993769;28;20763;-85
2021/10/27 05:25:47;;;;;;;9.98;7.07;;;11.00;99.90;;;;;;4993084;28;20521;-83
2021/10/27 05:28:13;;;;;;;10.50;7.60;;;10.90;99.90;;;;;;4992141;28;20443;-84
2021/10/27 05:30:39;;;;;;;12.00;7.67;;;11.00;99.90;;;;;;4993463;28;20467;-84
2021/10/27 05:33:04;;;;;;;8.68;7.20;;;10.90;99.90;;;;;;4992652;28;20392;-83
2021/10/27 05:35:32;;;;;;;10.52;7.55;;;11.00;99.90;;;;;;4993226;28;20381;-83
2021/10/27 05:37:59;;;;;;;10.73;7.53;;;10.90;99.90;;;;;;4991836;28;20392;-85
2021/10/27 05:40:25;;;;;;;9.40;6.78;;;11.00;99.90;;;;;;4993172;28;20580;-83
2021/10/27 05:42:51;;;;;;;12.57;7.38;;;11.00;99.90;;;;;;4994451;28;20935;-84
2021/10/27 05:45:19;;;;;;;7.45;6.65;;;11.00;99.90;;;;;;4990926;28;20425;-82
2021/10/27 05:47:49;;;;;;;9.10;6.93;;;11.10;99.90;;;;;;4993916;28;20389;-83
2021/10/27 05:55:34;;;;;;;9.43;6.90;;;11.10;99.90;;;;;;4993520;28;20416;-82
2021/10/27 05:58:04;;;;;;;11.65;7.53;;;11.10;99.90;;;;;;4991162;28;20424;-83
2021/10/27 06:00:30;;;;;;;8.82;6.65;;;11.10;99.90;;;;;;4990977;28;20958;-84
2021/10/27 06:02:57;;;;;;;8.88;6.95;;;11.10;99.90;;;;;;4993665;28;20412;-83
2021/10/27 06:05:24;;;;;;;9.73;7.60;;;11.00;99.90;;;;;;4994035;28;20385;-85
2021/10/27 06:07:50;;;;;;;8.63;6.72;;;11.00;99.90;;;;;;4994492;28;20747;-83
2021/10/27 06:10:22;;;;;;;8.88;7.03;;;11.00;99.90;;;;;;4995765;28;20412;-83
2021/10/27 06:12:51;;;;;;;11.93;6.63;;;11.10;99.90;;;;;;4996178;28;20934;-84
2021/10/27 06:15:19;;;;;;;9.60;6.93;;;11.10;99.90;;;;;;4996212;28;20389;-82
2021/10/27 06:17:45;;;;;;;8.77;6.75;;;11.20;99.90;;;;;;4996658;28;20816;-83
2021/10/27 06:20:12;;;;;;;9.68;6.43;;;11.30;99.90;;;;;;4997029;28;20413;-82
2021/10/27 06:22:37;;;;;;;9.25;7.38;;;11.30;99.90;;;;;;4996885;28;20384;-83
2021/10/27 06:25:07;;;;;;;10.32;6.60;;;11.20;99.90;;;;;;4997838;28;20377;-83
2021/10/27 06:27:34;;;;;;;11.25;7.22;;;11.20;99.90;;;;;;4994840;28;20461;-83
2021/10/27 06:30:08;;;;;;;9.33;7.03;;;11.30;99.90;;;;;;4995293;28;20532;-82
2021/10/27 06:35:27;;;;;;;12.02;7.82;;;11.30;99.90;;;;;;4997738;28;20877;-83
2021/10/27 06:46:00;;;;;;;10.25;6.85;;;11.40;99.90;;;;;;4986930;28;20396;-83
2021/10/27 06:48:25;;;;;;;9.75;6.80;;;11.50;99.90;;;;;;4995480;28;21028;-82
2021/10/27 06:50:51;;;;;;;10.43;6.50;;;11.60;99.90;;;;;;4996250;28;20385;-82
2021/10/27 06:53:17;;;;;;;10.17;6.33;;;11.70;99.90;;;;;;4995950;28;20443;-82
2021/10/27 06:55:42;;;;;;;8.67;6.37;;;11.80;99.90;;;;;;4995917;28;20431;-84
2021/10/27 06:58:10;;;;;;;10.88;6.85;;;11.90;99.90;;;;;;4997240;28;20373;-82
2021/10/27 07:03:45;;;;;;;9.13;6.10;;;12.10;99.90;;;;;;4996534;28;20393;-83
2021/10/27 07:16:41;;;;;;;9.07;6.03;;;12.20;99.90;;;;;;4993847;28;20391;-85
2021/10/27 07:19:06;;;;;;;7.97;6.38;;;12.20;99.90;;;;;;4996970;28;20388;-83
2021/10/27 07:21:32;;;;;;;8.05;6.00;;;12.20;99.90;;;;;;4996849;28;20397;-84
2021/10/27 07:23:58;;;;;;;10.10;5.70;;;12.20;99.90;;;;;;4996485;28;20408;-83
2021/10/27 07:26:25;;;;;;;9.73;5.40;;;12.30;99.90;;;;;;4995387;28;20465;-84
2021/10/27 07:28:54;;;;;;;9.40;5.53;;;12.40;99.90;;;;;;4994665;28;20421;-83
2021/10/27 07:31:20;;;;;;;7.68;5.10;;;12.40;99.90;;;;;;4993111;28;20385;-83
2021/10/27 07:33:56;;;;;;;10.73;5.63;;;12.60;99.90;;;;;;4994853;28;20407;-83
2021/10/27 07:41:31;;;;;;;8.52;4.95;;;12.80;99.90;;;;;;4993190;28;20400;-83
2021/10/27 07:43:58;;;;;;;9.67;5.37;;;12.90;99.90;;;;;;4990921;28;20385;-83
2021/10/27 07:46:24;;;;;;;7.13;5.20;;;12.90;99.90;;;;;;4990058;28;20404;-81
2021/10/27 07:48:50;;;;;;;6.47;4.80;;;13.00;99.90;;;;;;4991937;28;20416;-82
2021/10/27 07:51:16;;;;;;;9.32;5.03;;;13.10;99.90;;;;;;4992249;28;20377;-82
2021/10/27 07:53:41;;;;;;;6.22;4.55;;;13.10;99.90;;;;;;4992151;28;20884;-81
2021/10/27 07:56:07;;;;;;;5.90;4.67;;;13.20;99.90;;;;;;4989490;28;20977;-83
2021/10/27 07:58:33;;;;;;;7.50;4.57;;;13.30;99.90;;;;;;4991820;28;20425;-81
2021/10/27 08:00:59;;;;;;;7.88;4.80;;;13.40;99.90;;;;;;4991857;28;20392;-81
2021/10/27 08:03:27;;;;;;;5.90;4.65;;;13.70;99.90;;;;;;4989738;28;20389;-82
2021/10/27 08:05:56;;;;;;;9.35;4.50;;;13.70;99.90;;;;;;4990886;28;20409;-82
2021/10/27 08:08:23;;;;;;;8.57;4.32;;;14.00;99.90;;;;;;4991706;28;20870;-84
2021/10/27 08:10:50;;;;;;;7.67;4.30;;;14.10;99.90;;;;;;4988682;28;20770;-82
2021/10/27 08:13:16;;;;;;;7.93;4.10;;;14.20;99.90;;;;;;4991366;28;20751;-82
2021/10/27 08:15:42;;;;;;;7.77;4.27;;;14.30;99.90;;;;;;4988475;28;20404;-83
2021/10/27 08:18:11;;;;;;;6.43;4.25;;;14.40;99.90;;;;;;4991412;28;20372;-81
2021/10/27 08:20:37;;;;;;;10.20;4.47;;;14.50;99.90;;;;;;4990586;28;20396;-81
2021/10/27 08:23:06;;;;;;;9.48;4.68;;;14.60;99.90;;;;;;4991172;28;20380;-81
2021/10/27 08:25:36;;;;;;;9.25;4.25;;;14.60;99.90;;;;;;4989729;28;20484;-83
2021/10/27 08:28:09;;;;;;;6.78;4.20;;;14.60;99.90;;;;;;4990069;28;20463;-81
2021/10/27 08:33:48;;;;;;;7.85;4.28;;;14.50;99.90;;;;;;4973876;28;20472;-81
2021/10/27 08:36:13;;;;;;;8.88;4.40;;;14.60;99.90;;;;;;4989769;28;20411;-84
2021/10/27 08:38:39;;;;;;;7.00;4.27;;;14.80;99.90;;;;;;4990253;28;20381;-82
2021/10/27 08:41:06;;;;;;;8.13;4.30;;;14.70;99.90;;;;;;4989926;28;20744;-83
2021/10/27 08:43:32;;;;;;;6.25;4.00;;;14.80;99.90;;;;;;4989901;28;20392;-83
2021/10/27 08:46:00;;;;;;;7.55;5.00;;;15.00;99.90;;;;;;4991764;28;20389;-82
2021/10/27 08:48:27;;;;;;;6.50;4.50;;;15.10;99.90;;;;;;4986982;28;20404;-83
2021/10/27 08:50:54;;;;;;;8.32;4.50;;;15.30;99.90;;;;;;4987541;28;20401;-84
2021/10/27 08:53:22;;;;;;;7.57;4.38;;;15.40;99.90;;;;;;4989176;28;20419;-86
2021/10/27 08:55:50;;;;;;;9.82;4.97;;;15.50;99.90;;;;;;4989819;28;20400;-82
2021/10/27 08:58:31;;;;;;;8.85;4.55;;;15.50;99.90;;;;;;4989140;28;20400;-85
2021/10/27 09:01:06;;;;;;;8.25;4.22;;;15.30;99.90;;;;;;4991586;28;20490;-85
2021/10/27 09:06:27;;;;;;;7.18;4.68;;;15.50;99.90;;;;;;4993360;28;20804;-81
2021/10/27 10:05:22;;;;;;;7.10;3.65;;;15.00;99.90;;;;;;4995041;28;20396;-82
2021/10/27 10:07:50;;;;;;;8.02;3.95;;;14.90;99.90;;;;;;4993946;28;20374;-82
2021/10/27 10:10:15;;;;;;;8.50;3.67;;;15.00;99.90;;;;;;4991560;28;20417;-83
2021/10/27 10:12:45;;;;;;;5.22;3.17;;;15.10;99.90;;;;;;4992049;28;20378;-81
2021/10/27 10:15:12;;;;;;;8.25;3.67;;;15.20;99.90;;;;;;4991689;28;20391;-82
2021/10/27 10:17:45;;;;;;;7.60;3.78;;;15.10;99.90;;;;;;4994173;28;20389;-85
2021/10/27 10:20:13;;;;;;;6.53;3.53;;;15.00;99.90;;;;;;4994402;28;20803;-80
2021/10/27 10:22:43;;;;;;;8.82;3.83;;;15.00;99.90;;;;;;4993905;28;20381;-83
2021/10/27 10:25:17;;;;;;;8.88;4.13;;;15.00;99.90;;;;;;4992222;28;20436;-81
2021/10/27 10:27:47;;;;;;;5.30;3.55;;;15.10;99.90;;;;;;4994169;28;20825;-82
2021/10/27 10:30:30;;;;;;;9.30;3.90;;;15.20;99.90;;;;;;4995128;28;20516;-81
2021/10/27 10:33:04;;;;;;;6.82;3.90;;;15.20;99.90;;;;;;4992701;28;20401;-81
2021/10/27 10:35:50;;;;;;;5.13;3.58;;;15.30;99.90;;;;;;4995462;28;20387;-82
2021/10/27 10:44:47;;;;;;;5.70;3.45;;;15.30;99.90;;;;;;4999603;28;20401;-83
2021/10/27 10:59:03;;;;;;;8.38;3.72;;;15.40;99.90;;;;;;4999351;28;20440;-81
2021/10/27 11:39:35;;;;;;;6.07;3.70;;;15.40;99.90;;;;;;4981615;28;20462;-80
2021/10/27 11:42:19;;;;;;;5.28;3.55;;;15.50;99.90;;;;;;4992704;28;20381;-83
2021/10/27 11:47:33;;;;;;;5.85;3.60;;;15.60;99.90;;;;;;4990414;28;20397;-81
2021/10/27 11:49:59;;;;;;;5.50;3.35;;;15.50;99.90;;;;;;4991119;28;20483;-81
2021/10/27 11:52:45;;;;;;;4.80;3.60;;;15.50;99.90;;;;;;4993030;28;20950;-81
2021/10/27 11:55:15;;;;;;;6.90;3.95;;;15.60;99.90;;;;;;4989353;28;20476;-81
2021/10/27 11:57:43;;;;;;;8.25;3.72;;;15.60;99.90;;;;;;4989360;28;20420;-82
2021/10/27 12:00:44;;;;;;;7.03;3.78;;;15.60;99.90;;;;;;4989062;28;20415;-83
2021/10/27 12:03:26;;;;;;;6.38;3.70;;;15.60;99.90;;;;;;4987543;28;20447;-82
2021/10/27 12:06:00;;;;;;;5.38;3.50;;;15.50;99.90;;;;;;4990238;28;20458;-81
2021/10/27 12:08:59;;;;;;;7.40;3.38;;;15.40;99.90;;;;;;4990807;28;20865;-82
2021/10/27 12:14:17;;;;;;;6.77;3.30;;;15.60;99.90;;;;;;4989214;28;21084;-82
2021/10/27 12:19:22;;;;;;;4.77;3.40;;;15.50;99.90;;;;;;4991463;28;20401;-81
2021/10/27 12:21:49;;;;;;;7.88;3.45;;;15.50;99.90;;;;;;4991640;28;20392;-82
2021/10/27 12:24:17;;;;;;;7.18;3.42;;;15.40;99.90;;;;;;4985636;28;20644;-81
2021/10/27 12:26:46;;;;;;;5.43;3.40;;;15.30;99.90;;;;;;4982962;28;20389;-81
2021/10/27 12:29:15;;;;;;;7.32;3.30;;;15.40;99.90;;;;;;4987510;28;20456;-84
2021/10/27 12:31:42;;;;;;;4.67;3.43;;;15.40;99.90;;;;;;4984359;28;20400;-83
2021/10/27 12:34:19;;;;;;;7.15;3.50;;;15.30;99.90;;;;;;4988036;28;20385;-83
2021/10/27 12:36:46;;;;;;;6.53;3.30;;;15.30;99.90;;;;;;4987434;28;20400;-83
2021/10/27 12:41:49;;;;;;;5.40;3.22;;;15.30;99.90;;;;;;4988049;28;20447;-81
2021/10/27 12:44:25;;;;;;;7.15;3.40;;;15.30;99.90;;;;;;4989085;28;20902;-81
2021/10/27 12:47:06;;;;;;;6.30;3.10;;;15.40;99.90;;;;;;4989328;28;20455;-83
2021/10/27 12:49:32;;;;;;;8.10;3.33;;;15.50;99.90;;;;;;4989705;28;20459;-82
2021/10/27 12:51:57;;;;;;;5.07;3.10;;;15.50;99.90;;;;;;4990904;28;20384;-81
2021/10/27 12:54:29;;;;;;;5.37;2.93;;;15.50;99.90;;;;;;4989894;28;20898;-83
2021/10/27 12:57:05;;;;;;;6.32;3.65;;;15.50;99.90;;;;;;4989146;28;20404;-84
2021/10/27 12:59:32;;;;;;;7.05;3.40;;;15.40;99.90;;;;;;4991355;28;20428;-81
2021/10/27 13:02:25;;;;;;;4.65;2.97;;;15.40;99.90;;;;;;4990860;28;20985;-83
2021/10/27 13:05:03;;;;;;;5.63;3.25;;;15.50;99.90;;;;;;4992625;28;20540;-81
2021/10/27 13:07:36;;;;;;;6.80;3.50;;;15.40;99.90;;;;;;4991044;28;20762;-81
2021/10/27 13:15:14;;;;;;;5.20;3.17;;;15.50;99.90;;;;;;4994095;28;20388;-85
2021/10/27 13:17:58;;;;;;;4.65;2.90;;;15.40;99.90;;;;;;4993621;28;20903;-85
2021/10/27 13:23:37;;;;;;;5.22;2.95;;;15.40;99.90;;;;;;4996178;28;20387;-82
2021/10/27 13:31:27;;;;;;;6.68;2.90;;;15.30;99.90;;;;;;4996673;28;20482;-84
2021/10/27 13:33:53;;;;;;;6.97;3.10;;;15.30;99.90;;;;;;4998117;28;20381;-81
2021/10/27 13:36:19;;;;;;;5.90;3.07;;;15.30;99.90;;;;;;4997597;28;20758;-84
2021/10/27 13:38:46;;;;;;;6.10;3.08;;;15.30;99.90;;;;;;4996722;28;20409;-83
2021/10/27 13:41:12;;;;;;;3.97;2.72;;;15.40;99.90;;;;;;4994970;28;20463;-83
2021/10/27 13:43:44;;;;;;;5.65;3.10;;;15.30;99.90;;;;;;4989043;28;20535;-84
2021/10/27 13:46:28;;;;;;;4.97;3.10;;;15.20;99.90;;;;;;4985825;28;20392;-85
2021/10/27 13:49:10;;;;;;;4.45;2.60;;;15.30;99.90;;;;;;4985462;28;20436;-83
2021/10/27 14:08:10;;;;;;;5.60;3.50;;;15.30;99.90;;;;;;4989321;28;20392;-83
2021/10/27 14:19:09;;;;;;;10.10;3.85;;;15.20;99.90;;;;;;4989117;28;20397;-83
2021/10/27 15:22:12;;;;;;;6.72;3.80;;;14.80;99.90;;;;;;4995361;28;20396;-83
2021/10/27 15:24:54;;;;;;;6.10;3.53;;;14.80;99.90;;;;;;4993920;28;20388;-82
2021/10/27 15:30:08;;;;;;;4.70;3.33;;;14.80;99.90;;;;;;4994849;28;20824;-83
2021/10/27 15:32:49;;;;;;;6.97;4.07;;;14.90;99.90;;;;;;4993965;28;20871;-83
2021/10/27 15:35:32;;;;;;;6.20;3.63;;;14.80;99.90;;;;;;4994509;28;20408;-83
2021/10/27 15:43:45;;;;;;;5.45;3.80;;;14.70;99.90;;;;;;4995466;28;20392;-85
2021/10/27 15:51:46;;;;;;;6.20;2.97;;;14.80;99.90;;;;;;4993958;28;20795;-83
2021/10/27 15:54:15;;;;;;;7.30;3.30;;;14.80;99.90;;;;;;4993680;28;20381;-85
2021/10/27 15:56:41;;;;;;;6.55;3.42;;;14.80;99.90;;;;;;4990820;28;20800;-83
2021/10/27 15:59:07;;;;;;;5.57;3.72;;;14.70;99.90;;;;;;4992635;28;20412;-83
2021/10/27 16:01:33;;;;;;;6.90;3.42;;;14.70;99.90;;;;;;4992190;28;20427;-83
2021/10/27 16:03:58;;;;;;;6.03;3.20;;;14.80;99.90;;;;;;4994148;28;20400;-83
2021/10/27 16:06:26;;;;;;;4.57;3.42;;;14.70;99.90;;;;;;4993395;28;20409;-83
2021/10/27 16:08:55;;;;;;;5.55;3.15;;;14.70;99.90;;;;;;4993418;28;20384;-83
2021/10/27 16:11:21;;;;;;;5.78;3.58;;;14.70;99.90;;;;;;4992190;28;20397;-83
2021/10/27 16:13:47;;;;;;;9.10;3.75;;;14.70;99.90;;;;;;4994364;28;20409;-82
2021/10/27 16:16:14;;;;;;;5.97;3.97;;;14.70;99.90;;;;;;4994258;28;20408;-82
2021/10/27 16:18:40;;;;;;;5.72;4.22;;;14.80;99.90;;;;;;4994582;28;20388;-82
2021/10/27 16:21:06;;;;;;;8.55;6.00;;;14.70;99.90;;;;;;4994004;28;20883;-83
2021/10/27 16:23:32;;;;;;;11.73;7.00;;;14.70;99.90;;;;;;4993543;28;20877;-84
2021/10/27 16:25:58;;;;;;;8.48;4.97;;;14.70;99.90;;;;;;4993209;28;20501;-83
2021/10/27 16:28:25;;;;;;;6.57;5.07;;;14.70;99.90;;;;;;4992883;28;20396;-83
2021/10/27 16:30:52;;;;;;;5.85;5.10;;;14.70;99.90;;;;;;4992877;28;20412;-83
2021/10/27 16:33:21;;;;;;;9.17;5.93;;;14.70;99.90;;;;;;4992584;28;20389;-83
2021/10/27 16:35:48;;;;;;;9.30;5.13;;;14.70;99.90;;;;;;4991984;28;20395;-83
2021/10/27 16:38:14;;;;;;;7.90;4.65;;;14.60;99.90;;;;;;4993763;28;20392;-83
2021/10/27 16:40:40;;;;;;;6.75;4.30;;;14.70;99.90;;;;;;4994135;28;20385;-83
2021/10/27 16:43:06;;;;;;;10.02;4.50;;;14.60;99.90;;;;;;4994119;28;20786;-84
2021/10/27 16:45:32;;;;;;;7.57;3.58;;;14.60;99.90;;;;;;4992687;28;20428;-83
2021/10/27 16:47:58;;;;;;;4.97;3.38;;;14.60;99.90;;;;;;4994184;28;20404;-85
2021/10/27 16:50:24;;;;;;;8.55;4.10;;;14.50;99.90;;;;;;4993256;28;20408;-84
2021/10/27 16:52:50;;;;;;;5.40;3.97;;;14.60;99.90;;;;;;4991943;28;20428;-84
2021/10/27 16:55:19;;;;;;;5.57;3.83;;;14.70;99.90;;;;;;4993240;28;20400;-83
2021/10/27 16:57:46;;;;;;;8.23;4.03;;;14.70;99.90;;;;;;4992942;28;20456;-83
2021/10/27 17:00:12;;;;;;;6.28;4.15;;;14.60;99.90;;;;;;4993611;28;20396;-83
2021/10/27 17:02:38;;;;;;;6.30;4.15;;;14.60;99.90;;;;;;4991972;28;20883;-84
2021/10/27 17:05:04;;;;;;;7.70;5.00;;;14.60;99.90;;;;;;4993438;28;20383;-83
2021/10/27 17:07:31;;;;;;;8.48;5.32;;;14.60;99.90;;;;;;4992790;28;20419;-84
2021/10/27 17:09:57;;;;;;;9.48;5.55;;;14.50;99.90;;;;;;4992633;28;20416;-84
2021/10/27 17:12:23;;;;;;;9.88;5.93;;;14.60;99.90;;;;;;4993091;28;20377;-83
2021/10/27 17:14:49;;;;;;;8.25;6.05;;;14.50;99.90;;;;;;4979413;28;20887;-83
2021/10/27 17:17:14;;;;;;;9.32;6.25;;;14.50;99.90;;;;;;4986662;28;21705;-84
2021/10/27 17:19:40;;;;;;;7.97;6.47;;;14.40;99.90;;;;;;4990034;28;20945;-84
2021/10/27 17:22:10;;;;;;;10.18;6.88;;;14.50;99.90;;;;;;4984082;28;20910;-84
2021/10/27 17:24:36;;;;;;;10.40;7.10;;;14.40;99.90;;;;;;4988129;28;20405;-82
2021/10/27 17:27:02;;;;;;;12.15;7.13;;;14.40;99.90;;;;;;4987128;28;20391;-84